sensor_id;sensor_type;location;lat;lon;timestamp;noise_LAeq;noise_LA_min;noise_LA_max;noise_LA01;noise_LA95
66449;Laerm;56828;52.294;4.666;2023-02-13T06:20:25;50.14;43.12;60.09;;
66449;Laerm;56828;52.294;4.666;2023-02-13T06:20:36;44.81;41.76;48.44;;
66449;Laerm;56828;52.294;4.666;2023-02-13T06:20:47;45.29;42.65;48.79;;
66449;Laerm;56828;52.294;4.666;2023-02-13T06:20:58;45.33;42.53;50.26;;
66449;Laerm;56828;52.294;4.666;2023-02-13T06:21:08;48.74;45.55;52.20;;
66449;Laerm;56828;52.294;4.666;2023-02-13T06:21:19;48.95;45.21;52.70;;
66449;Laerm;56828;52.294;4.666;2023-02-13T06:21:29;47.19;43.09;55.89;;
66449;Laerm;56828;52.294;4.666;2023-02-13T06:21:39;44.66;41.47;47.98;;
66449;Laerm;56828;52.294;4.666;2023-02-13T06:21:49;43.94;41.64;49.29;;
66449;Laerm;56828;52.294;4.666;2023-02-13T06:22:00;44.15;42.41;45.92;;
66449;Laerm;56828;52.294;4.666;2023-02-13T06:22:10;45.17;43.25;46.90;;
66449;Laerm;56828;52.294;4.666;2023-02-13T06:22:20;44.94;42.64;46.93;;
66449;Laerm;56828;52.294;4.666;2023-02-13T06:22:51;44.81;41.69;49.67;;
66449;Laerm;56828;52.294;4.666;2023-02-13T06:23:01;45.73;42.35;49.52;;
66449;Laerm;56828;52.294;4.666;2023-02-13T06:23:11;45.12;42.52;51.30;;
66449;Laerm;56828;52.294;4.666;2023-02-13T06:23:22;44.78;41.64;48.32;;
66449;Laerm;56828;52.294;4.666;2023-02-13T06:23:32;44.42;41.98;46.50;;
66449;Laerm;56828;52.294;4.666;2023-02-13T06:23:43;44.37;42.12;46.25;;
66449;Laerm;56828;52.294;4.666;2023-02-13T06:23:53;46.17;43.46;48.82;;
66449;Laerm;56828;52.294;4.666;2023-02-13T06:24:04;46.36;43.29;49.89;;
66449;Laerm;56828;52.294;4.666;2023-02-13T06:24:14;46.40;43.06;51.56;;
66449;Laerm;56828;52.294;4.666;2023-02-13T06:24:25;45.77;43.32;51.65;;
66449;Laerm;56828;52.294;4.666;2023-02-13T06:24:35;45.78;43.70;50.75;;
66449;Laerm;56828;52.294;4.666;2023-02-13T06:24:45;45.83;42.71;48.57;;
66449;Laerm;56828;52.294;4.666;2023-02-13T06:24:55;44.36;42.40;46.48;;
66449;Laerm;56828;52.294;4.666;2023-02-13T06:25:05;44.96;42.38;49.75;;
66449;Laerm;56828;52.294;4.666;2023-02-13T06:25:16;45.92;42.96;51.91;;
66449;Laerm;56828;52.294;4.666;2023-02-13T06:25:26;45.06;42.71;48.31;;
66449;Laerm;56828;52.294;4.666;2023-02-13T06:25:37;44.89;42.25;47.27;;
66449;Laerm;56828;52.294;4.666;2023-02-13T06:25:47;46.51;44.04;48.97;;
66449;Laerm;56828;52.294;4.666;2023-02-13T06:26:01;51.78;43.59;63.97;;
66449;Laerm;56828;52.294;4.666;2023-02-13T06:26:12;46.64;42.17;63.69;;
66449;Laerm;56828;52.294;4.666;2023-02-13T06:26:22;44.25;41.67;48.09;;
66449;Laerm;56828;52.294;4.666;2023-02-13T06:26:33;44.73;41.71;51.25;;
66449;Laerm;56828;52.294;4.666;2023-02-13T06:26:43;44.58;42.56;47.54;;
66449;Laerm;56828;52.294;4.666;2023-02-13T06:26:53;44.22;41.55;47.02;;
66449;Laerm;56828;52.294;4.666;2023-02-13T06:27:04;44.39;41.79;48.02;;
66449;Laerm;56828;52.294;4.666;2023-02-13T06:27:14;47.39;43.98;51.57;;
66449;Laerm;56828;52.294;4.666;2023-02-13T06:27:24;47.44;45.01;51.69;;
66449;Laerm;56828;52.294;4.666;2023-02-13T06:27:35;49.28;46.40;54.40;;
66449;Laerm;56828;52.294;4.666;2023-02-13T06:27:45;49.18;46.11;55.23;;
66449;Laerm;56828;52.294;4.666;2023-02-13T06:27:55;46.83;43.41;50.78;;
66449;Laerm;56828;52.294;4.666;2023-02-13T06:28:06;46.37;43.80;49.51;;
66449;Laerm;56828;52.294;4.666;2023-02-13T06:28:16;46.41;43.79;48.89;;
66449;Laerm;56828;52.294;4.666;2023-02-13T06:28:26;45.92;43.81;48.37;;
66449;Laerm;56828;52.294;4.666;2023-02-13T06:28:37;47.12;44.25;50.20;;
66449;Laerm;56828;52.294;4.666;2023-02-13T06:28:47;45.69;43.53;50.76;;
66449;Laerm;56828;52.294;4.666;2023-02-13T06:28:58;46.01;43.32;49.71;;
66449;Laerm;56828;52.294;4.666;2023-02-13T06:29:08;45.72;43.09;49.97;;
66449;Laerm;56828;52.294;4.666;2023-02-13T06:29:20;46.23;44.10;49.58;;
66449;Laerm;56828;52.294;4.666;2023-02-13T06:29:30;45.45;43.41;48.49;;
66449;Laerm;56828;52.294;4.666;2023-02-13T06:29:41;45.41;42.62;54.26;;
66449;Laerm;56828;52.294;4.666;2023-02-13T06:29:52;47.74;43.68;53.38;;
66449;Laerm;56828;52.294;4.666;2023-02-13T06:30:02;49.76;45.64;57.46;;
66449;Laerm;56828;52.294;4.666;2023-02-13T06:30:13;50.07;45.96;58.13;;
66449;Laerm;56828;52.294;4.666;2023-02-13T06:30:23;49.03;45.79;55.43;;
66449;Laerm;56828;52.294;4.666;2023-02-13T06:30:33;47.15;43.75;50.31;;
66449;Laerm;56828;52.294;4.666;2023-02-13T06:30:44;45.59;43.43;48.03;;
66449;Laerm;56828;52.294;4.666;2023-02-13T06:30:54;48.17;44.71;51.24;;
66449;Laerm;56828;52.294;4.666;2023-02-13T06:31:04;50.28;47.47;53.08;;
66449;Laerm;56828;52.294;4.666;2023-02-13T06:31:15;47.15;45.03;50.08;;
66449;Laerm;56828;52.294;4.666;2023-02-13T06:31:25;45.31;42.88;51.52;;
66449;Laerm;56828;52.294;4.666;2023-02-13T06:31:35;45.59;42.95;50.50;;
66449;Laerm;56828;52.294;4.666;2023-02-13T06:31:46;47.99;44.71;51.45;;
66449;Laerm;56828;52.294;4.666;2023-02-13T06:31:56;47.10;43.78;50.59;;
66449;Laerm;56828;52.294;4.666;2023-02-13T06:32:06;45.37;42.62;50.36;;
66449;Laerm;56828;52.294;4.666;2023-02-13T06:32:16;47.67;45.01;51.02;;
66449;Laerm;56828;52.294;4.666;2023-02-13T06:32:27;46.21;43.91;48.29;;
66449;Laerm;56828;52.294;4.666;2023-02-13T06:32:37;45.28;43.11;48.33;;
66449;Laerm;56828;52.294;4.666;2023-02-13T06:32:47;44.68;42.94;47.10;;
66449;Laerm;56828;52.294;4.666;2023-02-13T06:32:58;44.21;42.59;46.12;;
66449;Laerm;56828;52.294;4.666;2023-02-13T06:33:08;46.12;42.85;51.87;;
66449;Laerm;56828;52.294;4.666;2023-02-13T06:33:19;47.97;44.45;52.46;;
66449;Laerm;56828;52.294;4.666;2023-02-13T06:33:29;47.82;44.52;52.72;;
66449;Laerm;56828;52.294;4.666;2023-02-13T06:33:39;46.03;43.98;49.19;;
66449;Laerm;56828;52.294;4.666;2023-02-13T06:33:49;45.76;43.60;47.43;;
66449;Laerm;56828;52.294;4.666;2023-02-13T06:34:00;45.34;43.50;47.51;;
66449;Laerm;56828;52.294;4.666;2023-02-13T06:34:11;46.09;43.90;48.30;;
66449;Laerm;56828;52.294;4.666;2023-02-13T06:34:21;46.10;43.99;48.80;;
66449;Laerm;56828;52.294;4.666;2023-02-13T06:34:31;46.78;44.64;49.81;;
66449;Laerm;56828;52.294;4.666;2023-02-13T06:34:42;46.30;43.64;49.23;;
66449;Laerm;56828;52.294;4.666;2023-02-13T06:34:52;46.85;44.08;53.18;;
66449;Laerm;56828;52.294;4.666;2023-02-13T06:35:02;46.15;43.97;47.74;;
66449;Laerm;56828;52.294;4.666;2023-02-13T06:35:13;46.50;44.54;48.97;;
66449;Laerm;56828;52.294;4.666;2023-02-13T06:35:23;45.55;43.25;47.81;;
66449;Laerm;56828;52.294;4.666;2023-02-13T06:35:33;46.44;43.77;48.82;;
66449;Laerm;56828;52.294;4.666;2023-02-13T06:35:44;48.22;45.12;51.17;;
66449;Laerm;56828;52.294;4.666;2023-02-13T06:35:54;48.98;45.98;53.17;;
66449;Laerm;56828;52.294;4.666;2023-02-13T06:36:04;48.60;45.60;52.55;;
66449;Laerm;56828;52.294;4.666;2023-02-13T06:36:14;48.67;45.35;56.45;;
66449;Laerm;56828;52.294;4.666;2023-02-13T06:36:25;47.88;45.52;50.96;;
66449;Laerm;56828;52.294;4.666;2023-02-13T06:36:35;47.27;45.16;49.78;;
66449;Laerm;56828;52.294;4.666;2023-02-13T06:36:47;46.57;43.81;48.67;;
66449;Laerm;56828;52.294;4.666;2023-02-13T06:36:57;45.74;44.12;47.37;;
66449;Laerm;56828;52.294;4.666;2023-02-13T06:37:07;46.22;44.53;48.10;;
66449;Laerm;56828;52.294;4.666;2023-02-13T06:37:18;46.95;45.04;49.08;;
66449;Laerm;56828;52.294;4.666;2023-02-13T06:37:28;46.41;44.29;49.18;;
66449;Laerm;56828;52.294;4.666;2023-02-13T06:37:38;46.97;44.60;50.12;;
66449;Laerm;56828;52.294;4.666;2023-02-13T06:37:48;48.31;45.01;51.14;;
66449;Laerm;56828;52.294;4.666;2023-02-13T06:37:59;47.67;44.79;50.02;;
66449;Laerm;56828;52.294;4.666;2023-02-13T06:38:09;48.24;44.83;53.08;;
66449;Laerm;56828;52.294;4.666;2023-02-13T06:38:20;47.01;45.24;49.95;;
66449;Laerm;56828;52.294;4.666;2023-02-13T06:38:31;47.31;45.23;50.61;;
66449;Laerm;56828;52.294;4.666;2023-02-13T06:38:41;47.22;44.89;54.78;;
66449;Laerm;56828;52.294;4.666;2023-02-13T06:38:52;48.14;45.62;51.45;;
66449;Laerm;56828;52.294;4.666;2023-02-13T06:39:02;49.25;45.79;55.56;;
66449;Laerm;56828;52.294;4.666;2023-02-13T06:39:12;51.14;46.18;59.43;;
66449;Laerm;56828;52.294;4.666;2023-02-13T06:39:22;46.98;44.98;49.34;;
66449;Laerm;56828;52.294;4.666;2023-02-13T06:39:33;46.82;45.11;49.14;;
66449;Laerm;56828;52.294;4.666;2023-02-13T06:39:43;47.16;44.14;49.73;;
66449;Laerm;56828;52.294;4.666;2023-02-13T06:39:54;47.27;45.30;52.63;;
66449;Laerm;56828;52.294;4.666;2023-02-13T06:40:07;46.93;44.32;48.84;;
66449;Laerm;56828;52.294;4.666;2023-02-13T06:40:18;47.20;44.73;52.73;;
66449;Laerm;56828;52.294;4.666;2023-02-13T06:40:28;47.77;45.36;51.21;;
66449;Laerm;56828;52.294;4.666;2023-02-13T06:40:38;49.48;44.96;60.17;;
66449;Laerm;56828;52.294;4.666;2023-02-13T06:40:49;54.03;48.18;62.58;;
66449;Laerm;56828;52.294;4.666;2023-02-13T06:41:00;49.64;45.67;55.62;;
66449;Laerm;56828;52.294;4.666;2023-02-13T06:41:13;49.49;46.23;52.93;;
66449;Laerm;56828;52.294;4.666;2023-02-13T06:41:24;50.61;46.92;53.47;;
66449;Laerm;56828;52.294;4.666;2023-02-13T06:41:34;51.51;47.76;61.36;;
66449;Laerm;56828;52.294;4.666;2023-02-13T06:41:44;48.97;45.54;53.10;;
66449;Laerm;56828;52.294;4.666;2023-02-13T06:41:54;47.71;45.59;50.62;;
66449;Laerm;56828;52.294;4.666;2023-02-13T06:42:04;47.92;45.47;50.90;;
66449;Laerm;56828;52.294;4.666;2023-02-13T06:42:15;51.56;45.41;60.81;;
66449;Laerm;56828;52.294;4.666;2023-02-13T06:42:25;47.34;44.57;58.10;;
66449;Laerm;56828;52.294;4.666;2023-02-13T06:42:35;46.08;44.32;49.34;;
66449;Laerm;56828;52.294;4.666;2023-02-13T06:42:45;46.57;44.31;49.02;;
66449;Laerm;56828;52.294;4.666;2023-02-13T06:42:56;49.25;47.42;51.38;;
66449;Laerm;56828;52.294;4.666;2023-02-13T06:43:06;46.84;44.80;49.91;;
66449;Laerm;56828;52.294;4.666;2023-02-13T06:43:19;47.03;44.67;49.00;;
66449;Laerm;56828;52.294;4.666;2023-02-13T06:43:29;46.08;43.88;49.41;;
66449;Laerm;56828;52.294;4.666;2023-02-13T06:43:40;46.99;44.00;54.32;;
66449;Laerm;56828;52.294;4.666;2023-02-13T06:43:50;46.51;44.04;50.56;;
66449;Laerm;56828;52.294;4.666;2023-02-13T06:44:01;49.99;45.42;58.39;;
66449;Laerm;56828;52.294;4.666;2023-02-13T06:44:11;46.93;44.63;49.39;;
66449;Laerm;56828;52.294;4.666;2023-02-13T06:44:21;48.56;43.74;52.54;;
66449;Laerm;56828;52.294;4.666;2023-02-13T06:44:34;49.25;46.30;52.65;;
66449;Laerm;56828;52.294;4.666;2023-02-13T06:44:44;47.98;45.48;52.85;;
66449;Laerm;56828;52.294;4.666;2023-02-13T06:44:55;48.43;44.97;53.71;;
66449;Laerm;56828;52.294;4.666;2023-02-13T06:45:05;49.23;44.91;55.09;;
66449;Laerm;56828;52.294;4.666;2023-02-13T06:45:16;48.40;44.70;55.43;;
66449;Laerm;56828;52.294;4.666;2023-02-13T06:45:26;47.13;44.23;52.40;;
66449;Laerm;56828;52.294;4.666;2023-02-13T06:45:36;56.95;45.43;64.70;;
66449;Laerm;56828;52.294;4.666;2023-02-13T06:45:46;57.01;44.60;66.11;;
66449;Laerm;56828;52.294;4.666;2023-02-13T06:45:57;47.01;44.51;53.30;;
66449;Laerm;56828;52.294;4.666;2023-02-13T06:46:07;47.24;44.89;52.28;;
66449;Laerm;56828;52.294;4.666;2023-02-13T06:46:18;48.01;45.73;50.75;;
66449;Laerm;56828;52.294;4.666;2023-02-13T06:46:28;49.94;46.43;55.17;;
66449;Laerm;56828;52.294;4.666;2023-02-13T06:46:38;48.00;45.36;53.14;;
66449;Laerm;56828;52.294;4.666;2023-02-13T06:46:48;47.08;44.74;50.76;;
66449;Laerm;56828;52.294;4.666;2023-02-13T06:46:59;46.86;44.57;49.42;;
66449;Laerm;56828;52.294;4.666;2023-02-13T06:47:09;47.23;44.40;50.95;;
66449;Laerm;56828;52.294;4.666;2023-02-13T06:47:19;49.85;45.56;53.42;;
66449;Laerm;56828;52.294;4.666;2023-02-13T06:47:30;53.23;48.62;57.62;;
66449;Laerm;56828;52.294;4.666;2023-02-13T06:47:43;51.68;47.08;59.30;;
66449;Laerm;56828;52.294;4.666;2023-02-13T06:47:53;51.34;47.36;54.56;;
66449;Laerm;56828;52.294;4.666;2023-02-13T06:48:04;55.64;47.13;59.20;;
66449;Laerm;56828;52.294;4.666;2023-02-13T06:48:14;51.36;45.26;56.72;;
66449;Laerm;56828;52.294;4.666;2023-02-13T06:48:24;47.99;44.88;53.03;;
66449;Laerm;56828;52.294;4.666;2023-02-13T06:48:35;46.65;44.27;49.20;;
66449;Laerm;56828;52.294;4.666;2023-02-13T06:48:45;46.22;43.79;50.82;;
66449;Laerm;56828;52.294;4.666;2023-02-13T06:48:55;47.67;44.76;54.41;;
66449;Laerm;56828;52.294;4.666;2023-02-13T06:49:05;49.78;46.24;56.21;;
66449;Laerm;56828;52.294;4.666;2023-02-13T06:49:16;48.94;45.18;51.50;;
66449;Laerm;56828;52.294;4.666;2023-02-13T06:49:26;48.00;45.20;51.16;;
66449;Laerm;56828;52.294;4.666;2023-02-13T06:49:36;47.33;45.20;49.92;;
66449;Laerm;56828;52.294;4.666;2023-02-13T06:49:46;47.00;44.73;49.49;;
66449;Laerm;56828;52.294;4.666;2023-02-13T06:49:56;47.26;45.05;49.12;;
66449;Laerm;56828;52.294;4.666;2023-02-13T06:50:07;46.52;44.03;49.57;;
66449;Laerm;56828;52.294;4.666;2023-02-13T06:50:17;46.96;44.08;51.15;;
66449;Laerm;56828;52.294;4.666;2023-02-13T06:50:28;47.69;44.03;53.45;;
66449;Laerm;56828;52.294;4.666;2023-02-13T06:50:38;48.85;44.58;52.25;;
66449;Laerm;56828;52.294;4.666;2023-02-13T06:50:48;52.66;49.14;59.17;;
66449;Laerm;56828;52.294;4.666;2023-02-13T06:51:01;49.02;44.53;59.72;;
66449;Laerm;56828;52.294;4.666;2023-02-13T06:51:11;48.98;44.43;54.72;;
66449;Laerm;56828;52.294;4.666;2023-02-13T06:51:21;50.66;48.10;54.83;;
66449;Laerm;56828;52.294;4.666;2023-02-13T06:51:31;48.31;44.86;53.20;;
66449;Laerm;56828;52.294;4.666;2023-02-13T06:52:01;45.94;42.82;48.80;;
66449;Laerm;56828;52.294;4.666;2023-02-13T06:52:12;48.25;46.12;50.37;;
66449;Laerm;56828;52.294;4.666;2023-02-13T06:52:22;47.36;45.27;50.86;;
66449;Laerm;56828;52.294;4.666;2023-02-13T06:52:32;47.70;44.51;50.69;;
66449;Laerm;56828;52.294;4.666;2023-02-13T06:52:44;48.07;44.07;52.88;;
66449;Laerm;56828;52.294;4.666;2023-02-13T06:52:54;46.75;44.39;48.97;;
66449;Laerm;56828;52.294;4.666;2023-02-13T06:53:05;46.88;43.31;49.40;;
66449;Laerm;56828;52.294;4.666;2023-02-13T06:53:17;49.55;44.04;54.91;;
66449;Laerm;56828;52.294;4.666;2023-02-13T06:53:28;49.39;45.05;65.14;;
66449;Laerm;56828;52.294;4.666;2023-02-13T06:53:38;52.26;47.92;61.55;;
66449;Laerm;56828;52.294;4.666;2023-02-13T06:53:48;49.91;45.76;56.99;;
66449;Laerm;56828;52.294;4.666;2023-02-13T06:53:59;49.61;44.49;55.74;;
66449;Laerm;56828;52.294;4.666;2023-02-13T06:54:09;46.89;43.64;49.57;;
66449;Laerm;56828;52.294;4.666;2023-02-13T06:54:19;47.53;44.80;51.29;;
66449;Laerm;56828;52.294;4.666;2023-02-13T06:54:30;46.16;44.29;48.04;;
66449;Laerm;56828;52.294;4.666;2023-02-13T06:54:40;45.90;43.51;47.84;;
66449;Laerm;56828;52.294;4.666;2023-02-13T06:54:50;48.21;46.00;50.92;;
66449;Laerm;56828;52.294;4.666;2023-02-13T06:55:01;47.32;45.36;49.80;;
66449;Laerm;56828;52.294;4.666;2023-02-13T06:55:17;49.33;45.44;53.74;;
66449;Laerm;56828;52.294;4.666;2023-02-13T06:55:27;48.98;45.77;54.79;;
66449;Laerm;56828;52.294;4.666;2023-02-13T06:55:37;48.24;44.28;55.21;;
66449;Laerm;56828;52.294;4.666;2023-02-13T06:55:52;45.24;43.22;50.23;;
66449;Laerm;56828;52.294;4.666;2023-02-13T06:56:03;47.11;44.69;51.30;;
66449;Laerm;56828;52.294;4.666;2023-02-13T06:56:15;49.13;47.20;51.10;;
66449;Laerm;56828;52.294;4.666;2023-02-13T06:56:25;46.88;43.82;50.41;;
66449;Laerm;56828;52.294;4.666;2023-02-13T06:56:35;45.52;43.17;49.38;;
66449;Laerm;56828;52.294;4.666;2023-02-13T06:56:46;46.58;44.32;52.19;;
66449;Laerm;56828;52.294;4.666;2023-02-13T06:56:56;47.90;44.63;50.97;;
66449;Laerm;56828;52.294;4.666;2023-02-13T06:57:06;47.58;44.71;52.09;;
66449;Laerm;56828;52.294;4.666;2023-02-13T06:57:16;45.51;43.17;48.51;;
66449;Laerm;56828;52.294;4.666;2023-02-13T06:57:27;46.54;44.03;48.06;;
66449;Laerm;56828;52.294;4.666;2023-02-13T06:57:42;48.35;45.33;52.47;;
66449;Laerm;56828;52.294;4.666;2023-02-13T06:57:52;49.20;47.04;52.62;;
66449;Laerm;56828;52.294;4.666;2023-02-13T06:58:03;47.71;45.06;50.46;;
66449;Laerm;56828;52.294;4.666;2023-02-13T06:58:13;47.76;44.45;51.50;;
66449;Laerm;56828;52.294;4.666;2023-02-13T06:58:24;48.61;45.04;54.19;;
66449;Laerm;56828;52.294;4.666;2023-02-13T06:58:35;46.36;44.43;48.81;;
66449;Laerm;56828;52.294;4.666;2023-02-13T06:58:45;45.78;43.47;47.65;;
66449;Laerm;56828;52.294;4.666;2023-02-13T06:58:55;48.56;45.18;52.03;;
66449;Laerm;56828;52.294;4.666;2023-02-13T06:59:06;50.15;44.95;54.96;;
66449;Laerm;56828;52.294;4.666;2023-02-13T06:59:16;48.03;43.89;56.04;;
66449;Laerm;56828;52.294;4.666;2023-02-13T06:59:26;45.85;43.44;48.01;;
66449;Laerm;56828;52.294;4.666;2023-02-13T06:59:36;45.43;43.41;47.50;;
66449;Laerm;56828;52.294;4.666;2023-02-13T06:59:47;46.45;44.29;48.34;;
66449;Laerm;56828;52.294;4.666;2023-02-13T07:00:00;45.69;43.24;47.91;;
66449;Laerm;56828;52.294;4.666;2023-02-13T07:00:15;46.24;43.67;50.33;;
66449;Laerm;56828;52.294;4.666;2023-02-13T07:00:25;45.97;43.57;50.62;;
66449;Laerm;56828;52.294;4.666;2023-02-13T07:00:36;46.90;43.40;50.82;;
66449;Laerm;56828;52.294;4.666;2023-02-13T07:00:47;48.48;44.74;52.98;;
66449;Laerm;56828;52.294;4.666;2023-02-13T07:00:57;47.72;45.01;51.74;;
66449;Laerm;56828;52.294;4.666;2023-02-13T07:01:07;47.67;44.72;51.88;;
66449;Laerm;56828;52.294;4.666;2023-02-13T07:01:17;48.96;44.13;51.71;;
66449;Laerm;56828;52.294;4.666;2023-02-13T07:01:28;46.27;44.27;50.55;;
66449;Laerm;56828;52.294;4.666;2023-02-13T07:01:38;51.60;47.38;55.99;;
66449;Laerm;56828;52.294;4.666;2023-02-13T07:01:48;52.16;48.49;54.88;;
66449;Laerm;56828;52.294;4.666;2023-02-13T07:01:59;50.04;46.10;55.98;;
66449;Laerm;56828;52.294;4.666;2023-02-13T07:02:12;49.63;47.41;52.14;;
66449;Laerm;56828;52.294;4.666;2023-02-13T07:02:22;48.68;44.91;56.19;;
66449;Laerm;56828;52.294;4.666;2023-02-13T07:02:32;45.85;43.65;48.80;;
66449;Laerm;56828;52.294;4.666;2023-02-13T07:02:43;46.35;43.68;51.52;;
66449;Laerm;56828;52.294;4.666;2023-02-13T07:02:54;46.91;44.30;53.44;;
66449;Laerm;56828;52.294;4.666;2023-02-13T07:03:10;48.09;44.51;52.77;;
66449;Laerm;56828;52.294;4.666;2023-02-13T07:03:29;49.63;45.67;56.86;;
66449;Laerm;56828;52.294;4.666;2023-02-13T07:03:39;47.42;44.19;53.13;;
66449;Laerm;56828;52.294;4.666;2023-02-13T07:03:50;45.66;43.60;50.34;;
66449;Laerm;56828;52.294;4.666;2023-02-13T07:04:00;46.10;43.53;48.78;;
66449;Laerm;56828;52.294;4.666;2023-02-13T07:04:10;47.93;45.04;50.25;;
66449;Laerm;56828;52.294;4.666;2023-02-13T07:04:21;47.79;44.03;53.40;;
66449;Laerm;56828;52.294;4.666;2023-02-13T07:04:31;47.26;45.37;50.56;;
66449;Laerm;56828;52.294;4.666;2023-02-13T07:05:01;48.85;44.94;54.45;;
66449;Laerm;56828;52.294;4.666;2023-02-13T07:05:13;46.77;44.27;51.68;;
66449;Laerm;56828;52.294;4.666;2023-02-13T07:05:25;47.78;45.01;52.63;;
66449;Laerm;56828;52.294;4.666;2023-02-13T07:05:38;47.35;45.26;51.64;;
66449;Laerm;56828;52.294;4.666;2023-02-13T07:06:04;47.96;45.25;52.61;;
66449;Laerm;56828;52.294;4.666;2023-02-13T07:06:17;48.39;44.57;54.62;;
66449;Laerm;56828;52.294;4.666;2023-02-13T07:06:28;48.27;45.01;53.29;;
66449;Laerm;56828;52.294;4.666;2023-02-13T07:06:38;50.07;45.84;53.58;;
66449;Laerm;56828;52.294;4.666;2023-02-13T07:06:48;50.31;46.57;54.18;;
66449;Laerm;56828;52.294;4.666;2023-02-13T07:06:58;50.11;46.99;53.33;;
66449;Laerm;56828;52.294;4.666;2023-02-13T07:07:09;49.17;45.85;56.52;;
66449;Laerm;56828;52.294;4.666;2023-02-13T07:07:19;48.92;45.56;54.71;;
66449;Laerm;56828;52.294;4.666;2023-02-13T07:07:33;47.84;45.58;51.84;;
66449;Laerm;56828;52.294;4.666;2023-02-13T07:07:43;48.43;45.68;51.81;;
66449;Laerm;56828;52.294;4.666;2023-02-13T07:07:53;49.94;46.80;56.29;;
66449;Laerm;56828;52.294;4.666;2023-02-13T07:08:03;51.21;48.09;56.15;;
66449;Laerm;56828;52.294;4.666;2023-02-13T07:08:14;50.05;47.59;52.57;;
66449;Laerm;56828;52.294;4.666;2023-02-13T07:08:24;48.97;44.97;54.08;;
66449;Laerm;56828;52.294;4.666;2023-02-13T07:08:34;46.45;44.56;51.03;;
66449;Laerm;56828;52.294;4.666;2023-02-13T07:08:45;45.75;43.51;49.29;;
66449;Laerm;56828;52.294;4.666;2023-02-13T07:08:55;44.45;42.12;48.00;;
66449;Laerm;56828;52.294;4.666;2023-02-13T07:09:05;44.92;42.28;48.00;;
66449;Laerm;56828;52.294;4.666;2023-02-13T07:09:33;44.74;42.89;47.62;;
66449;Laerm;56828;52.294;4.666;2023-02-13T07:09:43;44.61;42.33;51.39;;
66449;Laerm;56828;52.294;4.666;2023-02-13T07:09:54;44.40;42.52;49.22;;
66449;Laerm;56828;52.294;4.666;2023-02-13T07:10:05;46.28;43.50;53.66;;
66449;Laerm;56828;52.294;4.666;2023-02-13T07:10:16;46.79;43.48;53.28;;
66449;Laerm;56828;52.294;4.666;2023-02-13T07:10:48;46.50;44.28;49.64;;
66449;Laerm;56828;52.294;4.666;2023-02-13T07:11:00;47.49;44.75;51.10;;
66449;Laerm;56828;52.294;4.666;2023-02-13T07:11:17;48.53;46.09;50.30;;
66449;Laerm;56828;52.294;4.666;2023-02-13T07:11:27;47.87;45.33;49.56;;
66449;Laerm;56828;52.294;4.666;2023-02-13T07:11:37;46.37;43.93;48.60;;
66449;Laerm;56828;52.294;4.666;2023-02-13T07:11:48;46.47;43.81;50.04;;
66449;Laerm;56828;52.294;4.666;2023-02-13T07:12:01;50.10;45.68;55.41;;
66449;Laerm;56828;52.294;4.666;2023-02-13T07:12:11;46.02;44.01;49.48;;
66449;Laerm;56828;52.294;4.666;2023-02-13T07:12:21;46.55;44.38;49.32;;
66449;Laerm;56828;52.294;4.666;2023-02-13T07:12:32;49.21;45.48;55.37;;
66449;Laerm;56828;52.294;4.666;2023-02-13T07:12:42;51.73;46.99;57.09;;
66449;Laerm;56828;52.294;4.666;2023-02-13T07:12:53;51.16;47.70;60.56;;
66449;Laerm;56828;52.294;4.666;2023-02-13T07:13:03;52.40;47.52;65.27;;
66449;Laerm;56828;52.294;4.666;2023-02-13T07:13:14;50.45;46.97;55.55;;
66449;Laerm;56828;52.294;4.666;2023-02-13T07:13:27;51.91;46.15;57.46;;
66449;Laerm;56828;52.294;4.666;2023-02-13T07:13:37;47.57;45.28;52.09;;
66449;Laerm;56828;52.294;4.666;2023-02-13T07:13:47;48.64;45.50;53.31;;
66449;Laerm;56828;52.294;4.666;2023-02-13T07:13:58;53.36;45.85;58.44;;
66449;Laerm;56828;52.294;4.666;2023-02-13T07:14:08;48.40;46.16;51.73;;
66449;Laerm;56828;52.294;4.666;2023-02-13T07:14:18;48.76;46.04;62.08;;
66449;Laerm;56828;52.294;4.666;2023-02-13T07:14:29;49.35;46.11;56.38;;
66449;Laerm;56828;52.294;4.666;2023-02-13T07:14:39;50.05;47.32;53.82;;
66449;Laerm;56828;52.294;4.666;2023-02-13T07:14:49;52.86;48.25;56.62;;
66449;Laerm;56828;52.294;4.666;2023-02-13T07:14:59;58.48;47.27;69.85;;
66449;Laerm;56828;52.294;4.666;2023-02-13T07:15:10;53.52;48.84;59.23;;
66449;Laerm;56828;52.294;4.666;2023-02-13T07:15:20;50.58;48.44;53.69;;
66449;Laerm;56828;52.294;4.666;2023-02-13T07:15:31;50.31;46.11;54.57;;
66449;Laerm;56828;52.294;4.666;2023-02-13T07:15:41;47.50;44.93;50.47;;
66449;Laerm;56828;52.294;4.666;2023-02-13T07:15:52;48.20;45.81;51.88;;
66449;Laerm;56828;52.294;4.666;2023-02-13T07:16:02;49.57;46.39;55.70;;
66449;Laerm;56828;52.294;4.666;2023-02-13T07:16:13;49.17;45.14;52.75;;
66449;Laerm;56828;52.294;4.666;2023-02-13T07:16:23;47.32;44.81;50.03;;
66449;Laerm;56828;52.294;4.666;2023-02-13T07:16:33;48.11;44.36;51.64;;
66449;Laerm;56828;52.294;4.666;2023-02-13T07:16:44;46.32;43.77;49.18;;
66449;Laerm;56828;52.294;4.666;2023-02-13T07:16:54;48.87;44.28;59.32;;
66449;Laerm;56828;52.294;4.666;2023-02-13T07:17:04;49.60;45.72;57.96;;
66449;Laerm;56828;52.294;4.666;2023-02-13T07:17:15;48.27;44.59;50.74;;
66449;Laerm;56828;52.294;4.666;2023-02-13T07:17:25;46.32;42.95;50.93;;
66449;Laerm;56828;52.294;4.666;2023-02-13T07:17:35;46.23;44.02;49.76;;
66449;Laerm;56828;52.294;4.666;2023-02-13T07:17:46;50.58;45.41;55.03;;
66449;Laerm;56828;52.294;4.666;2023-02-13T07:17:57;52.58;48.78;55.71;;
66449;Laerm;56828;52.294;4.666;2023-02-13T07:18:08;49.38;45.84;53.73;;
66449;Laerm;56828;52.294;4.666;2023-02-13T07:18:18;47.96;44.83;58.20;;
66449;Laerm;56828;52.294;4.666;2023-02-13T07:18:28;46.94;44.31;51.14;;
66449;Laerm;56828;52.294;4.666;2023-02-13T07:18:39;48.21;44.55;55.20;;
66449;Laerm;56828;52.294;4.666;2023-02-13T07:18:49;48.16;44.62;53.41;;
66449;Laerm;56828;52.294;4.666;2023-02-13T07:18:59;49.57;43.91;63.12;;
66449;Laerm;56828;52.294;4.666;2023-02-13T07:19:09;48.01;44.72;61.27;;
66449;Laerm;56828;52.294;4.666;2023-02-13T07:19:20;46.71;44.03;54.16;;
66449;Laerm;56828;52.294;4.666;2023-02-13T07:19:30;51.84;45.16;57.22;;
66449;Laerm;56828;52.294;4.666;2023-02-13T07:19:40;48.43;42.83;54.19;;
66449;Laerm;56828;52.294;4.666;2023-02-13T07:19:51;44.96;42.46;48.72;;
66449;Laerm;56828;52.294;4.666;2023-02-13T07:20:02;47.76;43.71;51.97;;
66449;Laerm;56828;52.294;4.666;2023-02-13T07:20:13;48.44;45.47;51.10;;
66449;Laerm;56828;52.294;4.666;2023-02-13T07:20:24;47.71;44.16;52.86;;
66449;Laerm;56828;52.294;4.666;2023-02-13T07:20:34;45.28;43.24;47.81;;
66449;Laerm;56828;52.294;4.666;2023-02-13T07:20:44;47.20;44.22;50.41;;
66449;Laerm;56828;52.294;4.666;2023-02-13T07:20:56;47.70;44.18;51.18;;
66449;Laerm;56828;52.294;4.666;2023-02-13T07:21:07;47.56;43.49;51.77;;
66449;Laerm;56828;52.294;4.666;2023-02-13T07:21:17;47.84;45.13;54.13;;
66449;Laerm;56828;52.294;4.666;2023-02-13T07:21:27;49.06;45.90;51.47;;
66449;Laerm;56828;52.294;4.666;2023-02-13T07:21:38;49.13;44.68;57.49;;
66449;Laerm;56828;52.294;4.666;2023-02-13T07:21:48;46.59;43.28;51.86;;